createdAt,value
2023-04-07T00:01:31.341Z,7.30
2023-04-07T00:04:33.355Z,7.20
2023-04-07T00:07:42.060Z,7.30
2023-04-07T00:10:50.666Z,7.30
2023-04-07T00:13:52.508Z,7.10
2023-04-07T00:16:54.472Z,7.30
2023-04-07T00:19:56.183Z,7.10
2023-04-07T00:22:57.911Z,7.20
2023-04-07T00:25:59.602Z,7.30
2023-04-07T00:29:01.329Z,7.20
2023-04-07T00:32:03.057Z,7.30
2023-04-07T00:35:05.531Z,7.30
2023-04-07T00:38:07.504Z,7.30
2023-04-07T00:41:09.233Z,7.30
2023-04-07T00:44:11.451Z,7.30
2023-04-07T00:47:13.212Z,7.30
2023-04-07T00:50:15.074Z,7.30
2023-04-07T00:53:17.781Z,7.40
2023-04-07T00:56:20.862Z,7.30
2023-04-07T00:59:22.856Z,7.40
2023-04-07T01:02:33.915Z,7.30
2023-04-07T01:06:14.564Z,7.30
2023-04-07T01:09:34.820Z,7.40
2023-04-07T01:12:49.419Z,7.30
2023-04-07T01:15:57.063Z,7.30
2023-04-07T01:19:13.592Z,7.40
2023-04-07T01:22:23.972Z,7.50
2023-04-07T01:25:38.478Z,7.40
2023-04-07T01:29:17.885Z,7.50
2023-04-07T01:32:20.814Z,7.50
2023-04-07T01:35:23.926Z,7.60
2023-04-07T01:38:26.570Z,7.50
2023-04-07T01:41:28.492Z,7.50
2023-04-07T01:44:32.325Z,7.40
2023-04-07T01:47:37.418Z,7.50
2023-04-07T01:50:39.478Z,7.60
2023-04-07T01:53:41.482Z,7.70
2023-04-07T01:56:44.840Z,7.60
2023-04-07T01:59:46.851Z,7.60
2023-04-07T02:02:55.010Z,7.70
2023-04-07T02:06:01.246Z,7.70
2023-04-07T02:09:07.859Z,7.60
2023-04-07T02:12:12.936Z,7.60
2023-04-07T02:15:20.312Z,7.50
2023-04-07T02:18:24.647Z,7.50
2023-04-07T02:21:28.249Z,7.50
2023-04-07T02:24:30.175Z,7.60
2023-04-07T02:27:31.916Z,7.50
2023-04-07T02:30:35.581Z,7.60
2023-04-07T02:33:37.272Z,7.60
2023-04-07T02:36:39.087Z,7.60
2023-04-07T02:39:41.885Z,7.60
2023-04-07T02:42:44.041Z,7.60
2023-04-07T02:45:46.075Z,7.60
2023-04-07T02:48:47.889Z,7.50
2023-04-07T02:51:49.740Z,7.60
2023-04-07T02:54:51.926Z,7.70
2023-04-07T02:57:57.139Z,8.20
2023-04-07T03:01:11.176Z,7.70
2023-04-07T03:04:13.383Z,7.60
2023-04-07T03:07:15.450Z,8.30
2023-04-07T03:10:17.555Z,7.70
2023-04-07T03:13:21.718Z,7.60
2023-04-07T03:16:23.654Z,7.60
2023-04-07T03:19:47.285Z,7.80
2023-04-07T03:22:49.063Z,8.10
2023-04-07T03:25:58.327Z,7.60
2023-04-07T03:29:04.497Z,7.60
2023-04-07T03:32:06.798Z,7.60
2023-04-07T03:35:09.191Z,7.60
2023-04-07T03:38:12.398Z,7.60
2023-04-07T03:41:14.671Z,7.60
2023-04-07T03:44:16.917Z,7.70
2023-04-07T03:47:18.962Z,7.60
2023-04-07T03:50:27.717Z,7.60
2023-04-07T03:53:47.393Z,7.60
2023-04-07T03:57:02.328Z,7.70
2023-04-07T04:00:07.557Z,7.70
2023-04-07T04:03:18.192Z,7.60
2023-04-07T04:06:40.965Z,7.70
2023-04-07T04:09:54.412Z,7.70
2023-04-07T04:13:00.869Z,7.60
2023-04-07T04:16:02.848Z,7.60
2023-04-07T04:19:05.338Z,7.60
2023-04-07T04:22:07.567Z,7.70
2023-04-07T04:25:17.549Z,8.00
2023-04-07T04:28:23.524Z,7.70
2023-04-07T04:31:25.614Z,7.70
2023-04-07T04:34:27.628Z,7.70
2023-04-07T04:37:30.980Z,7.60
2023-04-07T04:40:33.996Z,7.70
2023-04-07T04:43:36.893Z,7.70
2023-04-07T04:46:40.348Z,7.60
2023-04-07T04:49:42.864Z,7.60
2023-04-07T04:52:44.797Z,7.50
2023-04-07T04:55:53.964Z,7.50
2023-04-07T04:59:00.784Z,7.70
2023-04-07T05:02:11.937Z,7.60
2023-04-07T05:05:15.361Z,7.50
2023-04-07T05:08:18.619Z,7.50
2023-04-07T05:11:21.453Z,7.60
2023-04-07T05:14:26.734Z,7.60
2023-04-07T05:17:35.121Z,7.70
2023-04-07T05:20:38.169Z,7.60
2023-04-07T05:23:41.246Z,8.10
2023-04-07T05:26:45.268Z,7.50
2023-04-07T05:29:47.149Z,7.50
2023-04-07T05:33:00.082Z,7.60
2023-04-07T05:36:22.232Z,7.60
2023-04-07T05:39:27.318Z,7.70
2023-04-07T05:42:31.373Z,7.50
2023-04-07T05:45:33.796Z,7.60
2023-04-07T05:48:35.921Z,7.70
2023-04-07T05:51:38.677Z,7.60
2023-04-07T05:54:45.487Z,7.70
2023-04-07T05:57:49.658Z,7.70
2023-04-07T06:00:55.008Z,7.70
2023-04-07T06:03:58.912Z,7.70
2023-04-07T06:07:03.151Z,7.80
2023-04-07T06:10:05.454Z,7.70
2023-04-07T06:13:07.840Z,7.70
2023-04-07T06:16:09.784Z,7.70
2023-04-07T06:19:12.762Z,7.80
2023-04-07T06:22:15.005Z,7.70
2023-04-07T06:25:17.003Z,7.50
2023-04-07T06:28:19.424Z,7.80
2023-04-07T06:31:21.498Z,7.90
2023-04-07T06:34:23.447Z,7.80
2023-04-07T06:37:26.080Z,7.90
2023-04-07T06:40:31.584Z,7.90
2023-04-07T06:43:33.380Z,7.90
2023-04-07T06:46:38.280Z,8.70
2023-04-07T06:49:41.019Z,7.90
2023-04-07T06:52:43.200Z,7.60
2023-04-07T06:55:45.130Z,8.10
2023-04-07T06:58:47.325Z,9.50
2023-04-07T07:01:49.533Z,9.70
2023-04-07T07:04:53.909Z,9.20
2023-04-07T07:07:56.127Z,8.30
2023-04-07T07:10:58.191Z,8.20
2023-04-07T07:14:16.228Z,8.30
2023-04-07T07:17:18.231Z,8.40
2023-04-07T07:20:20.408Z,8.30
2023-04-07T07:23:22.231Z,10.00
2023-04-07T07:26:29.714Z,9.80
2023-04-07T07:29:32.642Z,7.90
2023-04-07T07:32:40.172Z,8.10
2023-04-07T07:35:44.963Z,8.30
2023-04-07T07:38:47.307Z,8.40
2023-04-07T07:41:52.955Z,8.40
2023-04-07T07:44:58.612Z,8.50
2023-04-07T07:48:01.170Z,8.40
2023-04-07T07:51:10.030Z,8.70
2023-04-07T07:54:15.215Z,8.40
2023-04-07T07:57:21.433Z,9.40
2023-04-07T08:00:26.895Z,8.50
2023-04-07T08:03:32.422Z,8.70
2023-04-07T08:06:37.865Z,8.60
2023-04-07T08:09:40.920Z,9.60
2023-04-07T08:12:42.883Z,8.40
2023-04-07T08:15:47.296Z,9.80
2023-04-07T08:18:52.086Z,8.70
2023-04-07T08:22:00.740Z,8.80
2023-04-07T08:25:16.630Z,8.90
2023-04-07T08:28:27.170Z,9.00
2023-04-07T08:31:38.241Z,9.30
2023-04-07T08:34:45.585Z,9.10
2023-04-07T08:37:47.825Z,9.20
2023-04-07T08:41:07.646Z,9.60
2023-04-07T08:44:27.373Z,9.30
2023-04-07T08:47:33.636Z,10.20
2023-04-07T08:50:50.579Z,9.40
2023-04-07T08:54:23.087Z,9.20
2023-04-07T08:57:34.256Z,9.20
2023-04-07T09:00:49.431Z,9.30
2023-04-07T09:03:52.221Z,9.30
2023-04-07T09:07:03.636Z,10.40
2023-04-07T09:10:06.762Z,9.50
2023-04-07T09:13:22.613Z,9.40
2023-04-07T09:16:31.411Z,9.30
2023-04-07T09:19:34.139Z,9.30
2023-04-07T09:22:45.826Z,9.30
2023-04-07T09:26:01.551Z,9.20
2023-04-07T09:29:21.993Z,9.20
2023-04-07T09:32:53.024Z,9.30
2023-04-07T09:35:56.055Z,10.80
2023-04-07T09:39:08.818Z,9.10
2023-04-07T09:42:14.042Z,9.10
2023-04-07T09:45:33.919Z,9.00
2023-04-07T09:48:48.885Z,9.10
2023-04-07T09:52:08.227Z,9.40
2023-04-07T09:55:10.856Z,9.20
2023-04-07T09:58:24.125Z,9.40
2023-04-07T10:01:40.526Z,9.20
2023-04-07T10:04:56.325Z,10.30
2023-04-07T10:08:07.464Z,8.90
2023-04-07T10:11:13.127Z,9.10
2023-04-07T10:14:19.549Z,9.10
2023-04-07T10:17:30.150Z,9.10
2023-04-07T10:20:52.863Z,9.10
2023-04-07T10:24:24.663Z,9.10
2023-04-07T10:27:36.049Z,9.00
2023-04-07T10:30:45.661Z,9.10
2023-04-07T10:33:58.836Z,9.80
2023-04-07T10:37:22.433Z,9.20
2023-04-07T10:40:28.192Z,9.50
2023-04-07T10:43:50.126Z,9.30
2023-04-07T10:47:04.991Z,9.40
2023-04-07T10:50:23.943Z,9.30
2023-04-07T10:53:46.176Z,9.40
2023-04-07T10:57:06.456Z,9.40
2023-04-07T11:00:27.196Z,9.70
2023-04-07T11:03:45.464Z,9.40
2023-04-07T11:06:48.510Z,9.20
2023-04-07T11:09:51.106Z,9.10
2023-04-07T11:13:16.238Z,9.20
2023-04-07T11:16:20.423Z,9.30
2023-04-07T11:19:27.126Z,9.40
2023-04-07T11:22:30.588Z,9.30
2023-04-07T11:25:33.618Z,9.20
2023-04-07T11:28:50.030Z,10.90
2023-04-07T11:31:54.220Z,9.40
2023-04-07T11:35:06.365Z,10.90
2023-04-07T11:38:08.818Z,10.90
2023-04-07T11:41:19.675Z,9.80
2023-04-07T11:44:26.506Z,9.30
2023-04-07T11:47:41.132Z,9.40
2023-04-07T11:50:46.386Z,9.30
2023-04-07T11:53:54.419Z,9.50
2023-04-07T11:56:56.543Z,9.40
2023-04-07T12:00:12.860Z,10.80
2023-04-07T12:03:16.339Z,9.40
2023-04-07T12:06:42.015Z,9.50
2023-04-07T12:09:43.799Z,9.50
2023-04-07T12:12:53.062Z,9.80
2023-04-07T12:15:54.905Z,10.40
2023-04-07T12:18:57.609Z,9.60
2023-04-07T12:22:05.954Z,9.30
2023-04-07T12:25:10.642Z,9.40
2023-04-07T12:28:12.740Z,9.50
2023-04-07T12:31:20.168Z,9.40
2023-04-07T12:34:28.186Z,9.20
2023-04-07T12:37:30.367Z,11.00
2023-04-07T12:40:32.466Z,9.40
2023-04-07T12:43:35.652Z,9.40
2023-04-07T12:46:37.880Z,10.10
2023-04-07T12:49:39.648Z,9.10
2023-04-07T12:52:42.038Z,9.10
2023-04-07T12:55:49.995Z,9.30
2023-04-07T12:58:53.679Z,9.40
2023-04-07T13:01:58.614Z,9.20
2023-04-07T13:05:00.526Z,10.10
2023-04-07T13:08:03.713Z,9.70
2023-04-07T13:11:06.014Z,9.80
2023-04-07T13:14:07.846Z,9.10
2023-04-07T13:17:09.901Z,10.20
2023-04-07T13:20:12.433Z,9.90
2023-04-07T13:23:15.472Z,9.30
2023-04-07T13:26:17.517Z,9.40
2023-04-07T13:29:19.906Z,10.40
2023-04-07T13:32:21.753Z,9.10
2023-04-07T13:35:23.984Z,11.20
2023-04-07T13:38:26.388Z,9.60
2023-04-07T13:41:28.232Z,9.30
2023-04-07T13:44:30.068Z,10.30
2023-04-07T13:47:34.376Z,10.10
2023-04-07T13:50:37.876Z,10.50
2023-04-07T13:53:39.714Z,9.50
2023-04-07T13:56:41.580Z,9.60
2023-04-07T13:59:48.484Z,10.60
2023-04-07T14:02:50.877Z,10.20
2023-04-07T14:05:52.989Z,9.40
2023-04-07T14:08:54.848Z,9.40
2023-04-07T14:11:57.479Z,10.00
2023-04-07T14:14:59.313Z,9.80
2023-04-07T14:18:04.293Z,9.60
2023-04-07T14:21:06.860Z,10.30
2023-04-07T14:24:09.019Z,9.50
2023-04-07T14:27:11.084Z,9.80
2023-04-07T14:30:12.932Z,10.10
2023-04-07T14:33:17.222Z,9.50
2023-04-07T14:36:22.256Z,9.70
2023-04-07T14:39:25.082Z,10.10
2023-04-07T14:42:26.941Z,9.60
2023-04-07T14:45:28.872Z,9.70
2023-04-07T14:48:32.542Z,9.20
2023-04-07T14:51:34.523Z,9.50
2023-04-07T14:54:36.309Z,10.10
2023-04-07T14:57:38.909Z,9.80
2023-04-07T15:00:41.954Z,9.60
2023-04-07T15:03:44.393Z,9.80
2023-04-07T15:06:47.397Z,9.80
2023-04-07T15:09:49.304Z,10.00
2023-04-07T15:12:51.109Z,9.80
2023-04-07T15:15:52.995Z,9.90
2023-04-07T15:18:55.101Z,10.40
2023-04-07T15:21:57.016Z,9.80
2023-04-07T15:25:03.674Z,11.30
2023-04-07T15:28:05.967Z,9.80
2023-04-07T15:31:13.114Z,9.70
2023-04-07T15:34:18.202Z,10.50
2023-04-07T15:37:20.114Z,9.80
2023-04-07T15:40:22.428Z,10.20
2023-04-07T15:43:24.851Z,10.00
2023-04-07T15:46:27.815Z,10.10
2023-04-07T15:49:29.712Z,10.10
2023-04-07T15:52:31.645Z,10.70
2023-04-07T15:55:35.506Z,10.40
2023-04-07T15:58:37.953Z,10.50
2023-04-07T16:01:40.021Z,10.10
2023-04-07T16:04:42.320Z,10.50
2023-04-07T16:07:44.937Z,10.70
2023-04-07T16:10:46.994Z,10.00
2023-04-07T16:13:51.487Z,10.40
2023-04-07T16:16:58.521Z,10.20
2023-04-07T16:20:00.642Z,10.60
2023-04-07T16:23:02.578Z,11.50
2023-04-07T16:26:04.925Z,10.70
2023-04-07T16:29:06.894Z,9.90
2023-04-07T16:32:08.929Z,10.60
2023-04-07T16:35:12.445Z,11.20
2023-04-07T16:38:14.372Z,10.90
2023-04-07T16:41:16.301Z,11.50
2023-04-07T16:44:22.074Z,10.30
2023-04-07T16:47:24.813Z,9.70
2023-04-07T16:50:27.017Z,9.90
2023-04-07T16:53:31.997Z,10.80
2023-04-07T16:56:36.636Z,11.20
2023-04-07T16:59:39.120Z,9.90
2023-04-07T17:02:41.665Z,10.50
2023-04-07T17:05:48.361Z,9.40
2023-04-07T17:08:50.294Z,9.90
2023-04-07T17:11:52.435Z,9.80
2023-04-07T17:14:54.213Z,10.20
2023-04-07T17:18:00.036Z,10.40
2023-04-07T17:21:02.222Z,9.90
2023-04-07T17:24:04.133Z,10.80
2023-04-07T17:27:06.075Z,9.70
2023-04-07T17:30:08.780Z,9.70
2023-04-07T17:33:11.688Z,9.60
2023-04-07T17:36:14.751Z,9.80
2023-04-07T17:39:16.735Z,11.10
2023-04-07T17:42:18.685Z,9.50
2023-04-07T17:45:20.720Z,10.20
2023-04-07T17:48:22.975Z,9.50
2023-04-07T17:51:25.947Z,9.50
2023-04-07T17:54:28.413Z,9.80
2023-04-07T17:57:30.819Z,9.50
2023-04-07T18:00:33.092Z,11.20
2023-04-07T18:03:35.654Z,10.00
2023-04-07T18:06:37.842Z,9.30
2023-04-07T18:09:42.025Z,9.20
2023-04-07T18:12:47.516Z,10.20
2023-04-07T18:15:49.397Z,9.30
2023-04-07T18:18:54.706Z,10.10
2023-04-07T18:21:57.658Z,10.50
2023-04-07T18:25:02.410Z,9.80
2023-04-07T18:28:04.693Z,9.50
2023-04-07T18:31:08.342Z,9.10
2023-04-07T18:34:11.345Z,9.20
2023-04-07T18:37:13.923Z,10.40
2023-04-07T18:40:16.549Z,10.00
2023-04-07T18:43:19.195Z,9.40
2023-04-07T18:46:21.526Z,9.70
2023-04-07T18:49:24.190Z,9.10
2023-04-07T18:52:27.175Z,9.10
2023-04-07T18:55:28.900Z,9.10
2023-04-07T18:58:31.607Z,9.10
2023-04-07T19:01:33.548Z,9.10
2023-04-07T19:04:35.471Z,9.10
2023-04-07T19:07:37.642Z,9.00
2023-04-07T19:10:39.332Z,9.00
2023-04-07T19:13:41.317Z,9.00
2023-04-07T19:16:44.429Z,9.00
2023-04-07T19:19:46.221Z,8.90
2023-04-07T19:22:47.946Z,8.90
2023-04-07T19:25:49.768Z,8.90
2023-04-07T19:28:51.527Z,8.90
2023-04-07T19:31:54.581Z,8.90
2023-04-07T19:34:56.349Z,8.90
2023-04-07T19:41:29.264Z,8.70
2023-04-07T19:44:31.091Z,8.70
2023-04-07T19:47:32.915Z,8.60
2023-04-07T19:50:41.159Z,8.50
2023-04-07T19:57:05.898Z,8.20
2023-04-07T20:00:09.055Z,8.20
2023-04-07T20:03:11.196Z,8.20
2023-04-07T20:13:29.634Z,7.90
2023-04-07T20:16:32.333Z,7.70
2023-04-07T20:23:04.411Z,7.60
2023-04-07T20:26:07.166Z,7.50
2023-04-07T20:29:08.967Z,7.50
2023-04-07T20:32:10.870Z,7.50
2023-04-07T20:35:12.972Z,7.30
2023-04-07T20:38:14.727Z,7.30
2023-04-07T20:45:02.135Z,7.20
2023-04-07T20:48:04.575Z,7.10
2023-04-07T20:51:06.595Z,7.00
2023-04-07T20:54:08.922Z,7.10
2023-04-07T20:57:11.032Z,7.00
2023-04-07T21:00:13.045Z,7.00
2023-04-07T21:03:15.044Z,6.80
2023-04-07T21:06:16.874Z,6.70
2023-04-07T21:09:18.595Z,6.70
2023-04-07T21:19:27.985Z,6.50
2023-04-07T21:22:30.556Z,6.40
2023-04-07T21:25:32.285Z,6.30
2023-04-07T21:28:34.130Z,6.30
2023-04-07T21:31:36.344Z,6.30
2023-04-07T21:34:39.081Z,6.40
2023-04-07T21:37:41.040Z,6.30
2023-04-07T21:40:42.981Z,6.20
2023-04-07T21:43:44.854Z,6.40
2023-04-07T21:46:48.124Z,7.60
2023-04-07T21:49:51.225Z,6.20
2023-04-07T21:52:53.983Z,6.70
2023-04-07T21:55:56.134Z,6.10
2023-04-07T21:59:03.310Z,6.10
2023-04-07T22:02:05.199Z,5.90
2023-04-07T22:05:07.327Z,6.00
2023-04-07T22:08:11.892Z,5.90
2023-04-07T22:11:16.402Z,5.90
2023-04-07T22:14:29.613Z,6.50
2023-04-07T22:17:38.105Z,6.80
2023-04-07T22:20:48.289Z,5.80
2023-04-07T22:24:13.710Z,5.60
2023-04-07T22:27:26.914Z,5.60
2023-04-07T22:30:36.518Z,5.60
2023-04-07T22:33:45.699Z,5.50
2023-04-07T22:37:13.521Z,5.40
2023-04-07T22:40:22.951Z,5.40
2023-04-07T22:43:46.631Z,5.60
2023-04-07T22:46:52.306Z,5.50
2023-04-07T22:50:00.271Z,5.30
2023-04-07T22:53:13.996Z,5.60
2023-04-07T22:56:21.676Z,5.40
2023-04-07T22:59:24.187Z,5.30
2023-04-07T23:02:29.195Z,5.80
2023-04-07T23:05:31.278Z,5.20
2023-04-07T23:08:33.489Z,5.10
2023-04-07T23:11:36.553Z,5.20
2023-04-07T23:14:38.328Z,5.10
2023-04-07T23:17:40.623Z,5.10
2023-04-07T23:20:48.903Z,5.10
2023-04-07T23:23:51.082Z,5.10
2023-04-07T23:26:52.947Z,5.10
2023-04-07T23:29:54.758Z,5.50
2023-04-07T23:32:56.729Z,6.30
2023-04-07T23:35:59.116Z,4.80
2023-04-07T23:39:02.016Z,4.80
2023-04-07T23:42:03.878Z,5.30
2023-04-07T23:45:06.328Z,4.70
2023-04-07T23:48:08.154Z,4.70
2023-04-07T23:51:10.236Z,4.70
2023-04-07T23:54:12.372Z,4.70
2023-04-07T23:57:16.273Z,4.80
